Search METAR Data

METAR Data for ENCN:

ENCN 241420Z 23009KT 9999 -RA FEW005 SCT010CB BKN020 05/00 Q1008